Time;durP1;ratioP1;P1;durP2;ratioP2;P2;SDS_P1;SDS_P2;PMS_P1;PMS_P2;Temp;Humidity;BMP_temperature;BMP_pressure;BME280_temperature;BME280_humidity;BME280_pressure;Samples;Min_cycle;Max_cycle;Signal;HPM_P1;HPM_P2
2022/11/24 00:01:18;;;;;;;42.78;18.25;;;;;;;6.63;87.54;97911.83;1643225;86;20983;-78
2022/11/24 00:03:54;;;;;;;42.38;18.30;;;;;;;6.59;87.68;97907.19;1661482;86;20975;-79
2022/11/24 00:06:22;;;;;;;42.30;17.10;;;;;;;6.52;87.57;97915.98;1663299;86;20964;-78
2022/11/24 00:08:51;;;;;;;43.13;17.92;;;;;;;6.43;88.10;97916.25;1661579;86;21010;-78
2022/11/24 00:11:22;;;;;;;41.53;18.77;;;;;;;6.43;88.50;97912.37;1661722;86;21006;-78
2022/11/24 00:13:50;;;;;;;48.25;17.48;;;;;;;6.47;88.63;97917.41;1661573;86;21043;-79
2022/11/24 00:16:25;;;;;;;48.92;19.42;;;;;;;6.47;87.88;97919.16;1669972;86;20995;-79
2022/11/24 00:18:55;;;;;;;39.73;18.15;;;;;;;6.51;88.96;97916.43;1661601;86;20988;-79
2022/11/24 00:21:24;;;;;;;41.88;18.07;;;;;;;6.56;88.70;97922.33;1661582;86;21014;-79
2022/11/24 00:23:52;;;;;;;40.90;16.87;;;;;;;6.61;88.72;97916.19;1661665;86;21043;-77
2022/11/24 00:26:24;;;;;;;44.38;18.30;;;;;;;6.66;89.37;97916.89;1661618;86;20964;-77
2022/11/24 00:28:56;;;;;;;42.38;15.70;;;;;;;6.73;89.28;97923.59;1659888;86;21685;-77
2022/11/24 00:31:34;;;;;;;30.95;14.45;;;;;;;6.76;89.44;97926.06;1660190;86;21709;-77
2022/11/24 00:34:05;;;;;;;34.80;16.87;;;;;;;6.81;88.86;97929.38;1661533;86;21558;-77
2022/11/24 00:36:35;;;;;;;36.48;15.08;;;;;;;6.85;89.32;97924.52;1657694;86;21342;-77
2022/11/24 00:39:07;;;;;;;35.75;16.32;;;;;;;6.89;89.50;97930.00;1661656;86;21842;-77
2022/11/24 00:41:35;;;;;;;44.15;15.98;;;;;;;6.93;89.58;97928.18;1656329;86;21081;-77
2022/11/24 00:44:03;;;;;;;28.65;14.95;;;;;;;6.93;88.89;97926.44;1660495;86;21026;-77
2022/11/24 00:46:31;;;;;;;30.85;14.73;;;;;;;6.89;88.70;97924.83;1660407;86;21083;-77
2022/11/24 00:48:59;;;;;;;33.25;15.55;;;;;;;6.92;88.81;97927.77;1660462;86;21034;-76
2022/11/24 00:51:29;;;;;;;29.30;13.22;;;;;;;6.95;88.59;97931.56;1660369;85;21086;-77
2022/11/24 00:53:58;;;;;;;33.80;14.40;;;;;;;6.89;87.85;97932.58;1656625;86;21059;-76
2022/11/24 00:56:27;;;;;;;27.35;13.62;;;;;;;6.86;88.74;97933.95;1661484;86;21059;-77
2022/11/24 00:58:55;;;;;;;38.60;14.95;;;;;;;6.88;89.05;97932.17;1661550;86;21496;-77
2022/11/24 01:01:26;;;;;;;33.53;14.78;;;;;;;6.87;88.13;97934.82;1661601;86;21015;-76
2022/11/24 01:03:54;;;;;;;32.40;14.00;;;;;;;6.81;88.30;97932.41;1661598;86;21527;-76
2022/11/24 01:06:25;;;;;;;29.77;14.07;;;;;;;6.69;88.37;97936.19;1661437;86;21058;-77
2022/11/24 01:08:54;;;;;;;38.23;15.95;;;;;;;6.63;88.29;97938.95;1660985;86;20983;-77
2022/11/24 01:11:28;;;;;;;31.40;14.63;;;;;;;6.59;88.01;97939.47;1660476;86;21023;-77
2022/11/24 01:13:58;;;;;;;32.05;15.03;;;;;;;6.52;87.89;97938.77;1650683;86;21479;-78
2022/11/24 01:16:32;;;;;;;34.45;15.28;;;;;;;6.44;88.93;97934.26;1660018;86;21019;-78
2022/11/24 01:19:00;;;;;;;35.52;16.07;;;;;;;6.46;89.47;97941.97;1660169;86;21086;-78
2022/11/24 01:21:27;;;;;;;32.30;14.20;;;;;;;6.46;88.49;97943.27;1659965;86;21039;-79
2022/11/24 01:23:55;;;;;;;38.80;15.50;;;;;;;6.39;88.78;97938.72;1654400;86;21027;-79
2022/11/24 01:26:22;;;;;;;35.65;16.90;;;;;;;6.37;88.31;97937.91;1646559;86;21626;-78
2022/11/24 01:28:57;;;;;;;36.00;15.90;;;;;;;6.27;88.40;97940.34;1660023;86;21578;-79
2022/11/24 01:31:25;;;;;;;37.20;17.10;;;;;;;6.22;88.30;97938.30;1661473;86;21083;-78
2022/11/24 01:33:53;;;;;;;33.53;14.43;;;;;;;6.17;88.19;97935.41;1661527;86;21004;-79
2022/11/24 01:36:21;;;;;;;32.53;14.83;;;;;;;6.16;88.37;97945.31;1661491;86;20987;-78
2022/11/24 01:38:49;;;;;;;45.73;17.35;;;;;;;6.15;88.27;97947.95;1661500;86;21042;-78
2022/11/24 01:41:23;;;;;;;35.70;16.40;;;;;;;6.15;88.89;97953.95;1660466;86;21079;-78
2022/11/24 01:43:53;;;;;;;36.38;15.18;;;;;;;6.18;88.86;97955.59;1660177;86;21031;-78
2022/11/24 01:46:42;;;;;;;37.90;17.65;;;;;;;6.19;88.63;97954.73;1660170;86;21043;-78
2022/11/24 01:49:39;;;;;;;36.03;15.45;;;;;;;6.25;89.07;97948.56;1660110;86;21974;-79
2022/11/24 01:52:20;;;;;;;35.73;16.30;;;;;;;6.30;89.20;97953.98;1666415;85;21602;-78
2022/11/24 01:54:55;;;;;;;38.50;16.73;;;;;;;6.34;88.82;97955.59;1655724;85;21003;-78
2022/11/24 01:57:27;;;;;;;38.35;16.67;;;;;;;6.32;88.43;97948.34;1655852;85;20992;-78
2022/11/24 02:00:03;;;;;;;37.80;16.23;;;;;;;6.34;88.72;97953.02;1658732;85;21011;-76
2022/11/24 02:02:32;;;;;;;33.88;15.48;;;;;;;6.36;88.38;97955.11;1651955;85;21040;-78
2022/11/24 02:05:08;;;;;;;32.73;15.50;;;;;;;6.38;88.16;97960.24;1655678;85;20979;-78
2022/11/24 02:07:36;;;;;;;31.15;15.23;;;;;;;6.36;88.26;97957.70;1644009;85;21067;-78
2022/11/24 02:10:14;;;;;;;31.45;14.85;;;;;;;6.41;88.46;97956.75;1655235;85;21030;-79
2022/11/24 02:12:46;;;;;;;27.42;14.58;;;;;;;6.46;88.80;97957.01;1654549;85;21146;-79
2022/11/24 02:15:16;;;;;;;36.00;16.02;;;;;;;6.51;88.46;97950.45;1654765;85;21046;-77
2022/11/24 02:17:43;;;;;;;31.30;13.95;;;;;;;6.50;88.21;97952.16;1659500;85;21110;-78
2022/11/24 02:20:12;;;;;;;34.75;15.32;;;;;;;6.52;88.16;97951.67;1655597;85;21062;-78
2022/11/24 02:23:04;;;;;;;34.70;14.40;;;;;;;6.54;88.23;97960.23;1655086;85;21047;-77
2022/11/24 02:26:10;;;;;;;30.45;14.55;;;;;;;6.56;88.24;97964.94;1653563;85;21182;-79
2022/11/24 02:28:38;;;;;;;30.15;13.65;;;;;;;6.60;88.39;97964.39;1653248;85;21014;-78
2022/11/24 02:31:05;;;;;;;30.50;14.80;;;;;;;6.63;88.54;97963.02;1654437;85;21086;-79
2022/11/24 02:33:34;;;;;;;33.30;14.95;;;;;;;6.66;88.50;97960.34;1654630;85;21657;-78
2022/11/24 02:36:01;;;;;;;36.17;14.70;;;;;;;6.72;88.61;97954.16;1654423;85;21098;-79
2022/11/24 02:38:32;;;;;;;31.25;15.20;;;;;;;6.75;88.34;97964.42;1654535;85;22206;-79
2022/11/24 02:41:05;;;;;;;32.65;14.05;;;;;;;6.73;88.12;97961.04;1655672;85;21004;-80
2022/11/24 02:43:38;;;;;;;28.55;13.88;;;;;;;6.69;87.97;97969.31;1654085;85;21050;-79
2022/11/24 02:46:05;;;;;;;34.23;13.22;;;;;;;6.65;88.35;97969.00;1655903;85;21066;-78
2022/11/24 02:48:33;;;;;;;27.93;14.23;;;;;;;6.59;88.58;97961.41;1655831;85;20999;-78
2022/11/24 02:51:00;;;;;;;21.95;10.20;;;;;;;6.56;88.95;97961.48;1655710;85;21027;-79
2022/11/24 02:53:28;;;;;;;19.92;9.48;;;;;;;6.52;90.63;97965.87;1666474;85;21015;-79
2022/11/24 02:55:55;;;;;;;14.10;6.95;;;;;;;6.51;92.11;97956.45;1666651;86;21050;-79
2022/11/24 02:58:23;;;;;;;9.45;5.22;;;;;;;6.56;91.26;97959.77;1666264;86;21625;-78
2022/11/24 03:00:53;;;;;;;7.45;3.85;;;;;;;6.59;91.75;97964.45;1666380;85;21503;-78
2022/11/24 03:03:20;;;;;;;5.28;3.08;;;;;;;6.55;93.42;97958.06;1657425;86;21035;-79
2022/11/24 03:05:48;;;;;;;6.85;3.27;;;;;;;6.64;92.21;97961.28;1667373;85;21863;-78
2022/11/24 03:08:16;;;;;;;6.42;2.62;;;;;;;6.62;92.25;97966.94;1667481;86;21492;-78
2022/11/24 03:10:43;;;;;;;5.05;2.47;;;;;;;6.63;91.82;97969.94;1666800;86;21026;-79
2022/11/24 03:13:11;;;;;;;4.58;2.77;;;;;;;6.61;92.28;97974.30;1666354;85;21398;-79
2022/11/24 03:15:38;;;;;;;5.15;2.67;;;;;;;6.58;92.65;97972.63;1666478;86;21566;-79
2022/11/24 03:18:06;;;;;;;4.87;2.45;;;;;;;6.56;92.39;97964.07;1666333;85;21965;-79
2022/11/24 03:20:33;;;;;;;3.70;2.10;;;;;;;6.56;91.98;97974.40;1666428;85;21034;-79
2022/11/24 03:23:01;;;;;;;4.03;1.75;;;;;;;6.54;92.36;97975.72;1666465;86;21039;-78
2022/11/24 03:25:28;;;;;;;3.15;1.62;;;;;;;6.52;92.68;97974.92;1666414;85;21086;-79
2022/11/24 03:27:59;;;;;;;5.25;2.40;;;;;;;6.52;92.63;97981.83;1666259;85;21047;-79
2022/11/24 03:30:27;;;;;;;2.92;1.90;;;;;;;6.49;93.12;97981.47;1666254;85;21570;-78
2022/11/24 03:32:54;;;;;;;3.08;1.60;;;;;;;6.49;92.59;97986.63;1666032;85;22223;-79
2022/11/24 03:35:22;;;;;;;4.03;2.10;;;;;;;6.49;92.58;97985.80;1666261;86;21035;-79
2022/11/24 03:37:49;;;;;;;4.33;2.10;;;;;;;6.47;92.46;97991.44;1666254;86;21961;-78
2022/11/24 03:40:17;;;;;;;2.30;1.45;;;;;;;6.43;93.02;97991.13;1666214;85;21578;-79
2022/11/24 03:42:45;;;;;;;3.80;1.80;;;;;;;6.42;92.43;97990.25;1666153;85;21436;-79
2022/11/24 03:45:13;;;;;;;2.70;1.80;;;;;;;6.41;92.63;97990.31;1666069;85;21042;-78
2022/11/24 03:47:40;;;;;;;2.65;1.20;;;;;;;6.37;92.24;97994.70;1666154;85;21011;-78
2022/11/24 03:50:08;;;;;;;3.08;1.60;;;;;;;6.30;92.69;97988.83;1665955;86;21074;-79
2022/11/24 03:52:36;;;;;;;3.52;1.65;;;;;;;6.31;92.43;97993.12;1662973;85;21049;-78
2022/11/24 03:55:04;;;;;;;3.27;1.90;;;;;;;6.30;92.21;97994.00;1659977;86;21039;-78
2022/11/24 03:57:32;;;;;;;4.15;1.60;;;;;;;6.29;92.44;97986.31;1660272;86;21043;-78
2022/11/24 03:59:59;;;;;;;2.85;1.80;;;;;;;6.21;92.72;97996.83;1659978;86;21054;-77
2022/11/24 04:02:27;;;;;;;3.33;1.60;;;;;;;6.16;92.97;98001.24;1660282;86;21050;-78
2022/11/24 04:04:54;;;;;;;2.92;1.40;;;;;;;6.13;92.83;98002.17;1661916;86;21089;-78
2022/11/24 04:07:22;;;;;;;4.03;1.80;;;;;;;6.10;93.08;98004.81;1660348;86;21025;-79
2022/11/24 04:09:49;;;;;;;2.42;1.10;;;;;;;6.14;92.53;98007.73;1660359;86;21042;-78
2022/11/24 04:15:03;;;;;;;1.47;0.90;;;;;;;6.08;92.68;98016.07;1644487;86;21075;-79
2022/11/24 04:17:31;;;;;;;1.37;0.90;;;;;;;6.02;93.09;98022.67;1660581;86;21026;-79
2022/11/24 04:19:59;;;;;;;2.87;1.27;;;;;;;5.98;93.02;98021.89;1660592;86;21031;-79
2022/11/24 04:22:26;;;;;;;5.40;1.60;;;;;;;6.00;92.96;98026.57;1660478;86;21031;-78
2022/11/24 04:24:53;;;;;;;1.98;1.20;;;;;;;5.96;92.87;98028.82;1660510;86;22202;-78
2022/11/24 04:27:21;;;;;;;2.70;1.00;;;;;;;5.87;94.11;98031.16;1660547;86;21515;-79
2022/11/24 04:29:49;;;;;;;0.85;0.82;;;;;;;5.90;93.41;98032.80;1660303;86;21062;-79
2022/11/24 04:32:17;;;;;;;1.92;1.02;;;;;;;5.92;93.25;98036.20;1660286;86;21074;-79
2022/11/24 04:34:45;;;;;;;4.22;1.07;;;;;;;5.84;93.95;98040.69;1660086;86;21008;-79
2022/11/24 04:37:12;;;;;;;2.80;1.12;;;;;;;5.81;94.15;98040.74;1660142;86;21035;-78
2022/11/24 04:39:39;;;;;;;1.42;0.90;;;;;;;5.79;94.01;98047.25;1660164;86;21095;-78
2022/11/24 04:42:07;;;;;;;4.03;1.52;;;;;;;5.77;93.95;98049.86;1660269;86;21023;-78
2022/11/24 04:44:35;;;;;;;2.08;1.22;;;;;;;5.76;94.02;98048.59;1660150;86;21019;-78
2022/11/24 04:47:03;;;;;;;2.87;1.10;;;;;;;5.68;94.16;98060.36;1660238;86;21101;-78
2022/11/24 04:49:31;;;;;;;2.60;1.00;;;;;;;5.70;93.87;98062.91;1660049;86;21308;-78
2022/11/24 04:51:58;;;;;;;2.70;1.22;;;;;;;5.70;93.71;98062.47;1666696;85;21047;-78
2022/11/24 04:54:26;;;;;;;3.27;1.10;;;;;;;5.68;93.47;98069.39;1651402;85;21091;-77
2022/11/24 04:56:53;;;;;;;2.92;1.20;;;;;;;5.63;93.64;98066.08;1654455;85;21027;-78
2022/11/24 04:59:21;;;;;;;6.42;1.10;;;;;;;5.57;93.96;98072.63;1654170;85;21035;-78
2022/11/24 05:01:48;;;;;;;3.35;1.47;;;;;;;5.58;93.56;98079.05;1654454;85;21091;-78
2022/11/24 05:04:17;;;;;;;1.85;1.00;;;;;;;5.54;94.04;98074.00;1654317;85;21086;-77
2022/11/24 05:06:45;;;;;;;3.85;1.27;;;;;;;5.56;93.56;98078.69;1654249;85;21074;-78
2022/11/24 05:09:15;;;;;;;2.70;1.30;;;;;;;5.59;93.24;98088.95;1654315;85;21043;-78
2022/11/24 05:11:43;;;;;;;2.95;1.27;;;;;;;5.63;92.93;98098.73;1655701;85;20996;-78
2022/11/24 05:14:11;;;;;;;2.12;1.05;;;;;;;5.54;93.27;98091.60;1655660;85;20999;-78
2022/11/24 05:16:38;;;;;;;3.95;1.62;;;;;;;5.56;93.02;98095.44;1655816;85;21067;-78
2022/11/24 05:19:07;;;;;;;2.10;1.07;;;;;;;5.52;92.99;98104.13;1635380;86;21823;-78
2022/11/24 05:21:35;;;;;;;4.58;1.40;;;;;;;5.53;92.58;98100.23;1654353;85;21103;-80
2022/11/24 05:24:02;;;;;;;5.05;1.77;;;;;;;5.43;93.10;98112.91;1655225;85;21019;-78
2022/11/24 05:26:30;;;;;;;2.08;1.15;;;;;;;5.43;93.06;98115.90;1656860;85;21062;-79
2022/11/24 05:28:58;;;;;;;2.60;1.35;;;;;;;5.40;93.35;98116.82;1654903;85;21044;-78
2022/11/24 05:31:25;;;;;;;4.17;1.50;;;;;;;5.38;93.29;98123.73;1654826;85;21146;-79
2022/11/24 05:33:53;;;;;;;5.55;1.57;;;;;;;5.36;93.34;98130.65;1654617;85;21007;-78
2022/11/24 05:39:06;;;;;;;1.77;1.10;;;;;;;5.33;93.06;98132.85;1654633;85;21043;-78
2022/11/24 05:41:33;;;;;;;3.30;1.37;;;;;;;5.27;93.33;98140.70;1654548;85;21094;-78
2022/11/24 05:44:01;;;;;;;3.70;1.57;;;;;;;5.17;93.73;98146.88;1654821;85;21038;-78
2022/11/24 05:46:28;;;;;;;6.15;1.57;;;;;;;5.18;93.96;98155.04;1654459;85;21054;-78
2022/11/24 05:48:56;;;;;;;4.10;1.60;;;;;;;5.18;93.05;98152.46;1655515;85;21050;-78
2022/11/24 05:51:23;;;;;;;5.72;1.85;;;;;;;5.14;93.30;98155.98;1655117;85;21606;-77
2022/11/24 05:53:51;;;;;;;4.70;1.80;;;;;;;5.09;93.64;98159.94;1663650;85;21543;-77
2022/11/24 05:56:18;;;;;;;3.10;1.60;;;;;;;5.12;93.09;98159.02;1665910;86;21034;-77
2022/11/24 05:58:46;;;;;;;3.17;1.50;;;;;;;5.11;93.12;98171.48;1666180;86;21066;-78
2022/11/24 06:01:14;;;;;;;2.85;1.75;;;;;;;5.05;93.62;98169.85;1665963;86;21054;-78
2022/11/24 06:03:41;;;;;;;7.53;1.65;;;;;;;5.05;93.60;98177.58;1666122;85;21051;-78
2022/11/24 06:06:10;;;;;;;2.92;1.30;;;;;;;4.97;93.91;98176.45;1665957;85;21109;-77
2022/11/24 06:08:37;;;;;;;1.75;1.02;;;;;;;4.96;93.96;98177.31;1665970;86;21011;-78
2022/11/24 06:11:17;;;;;;;3.92;1.12;;;;;;;4.92;93.83;98183.40;1665859;86;21303;-78
2022/11/24 06:13:51;;;;;;;2.83;1.02;;;;;;;4.88;94.03;98193.78;1665978;86;21031;-78
2022/11/24 06:16:16;;;;;;;2.47;1.27;;;;;;;4.93;93.26;98191.55;1664740;85;21091;-77
2022/11/24 06:18:43;;;;;;;5.05;1.87;;;;;;;4.83;94.04;98191.71;1666030;85;21026;-78
2022/11/24 06:21:11;;;;;;;1.75;1.02;;;;;;;4.81;94.01;98202.47;1666119;86;21042;-78
2022/11/24 06:23:39;;;;;;;3.50;1.30;;;;;;;4.80;94.02;98206.78;1665872;85;21039;-78
2022/11/24 06:26:08;;;;;;;3.22;1.50;;;;;;;4.81;93.59;98205.89;1665924;85;21090;-79
2022/11/24 06:28:35;;;;;;;2.30;1.00;;;;;;;4.78;93.68;98202.94;1665827;86;21017;-78
2022/11/24 06:31:04;;;;;;;3.05;1.30;;;;;;;4.81;93.39;98207.63;1665892;85;21102;-79
2022/11/24 06:33:35;;;;;;;4.12;1.77;;;;;;;4.72;94.03;98218.48;1667173;86;20999;-78
2022/11/24 06:36:08;;;;;;;3.45;1.67;;;;;;;4.75;93.61;98209.41;1667227;85;21003;-78
2022/11/24 06:38:36;;;;;;;2.90;1.20;;;;;;;4.78;93.15;98216.27;1656740;86;21047;-78
2022/11/24 06:41:13;;;;;;;4.00;1.80;;;;;;;4.71;93.17;98221.08;1667312;86;21034;-78
2022/11/24 06:43:40;;;;;;;6.72;1.98;;;;;;;4.68;93.24;98221.14;1667153;85;21589;-78
2022/11/24 06:46:08;;;;;;;2.47;1.22;;;;;;;4.65;93.38;98232.77;1666702;86;21054;-78
2022/11/24 06:48:36;;;;;;;3.33;1.55;;;;;;;4.65;93.49;98230.19;1666033;85;21029;-79
2022/11/24 06:51:07;;;;;;;2.67;0.90;;;;;;;4.57;93.68;98231.14;1666242;85;21637;-78
2022/11/24 06:53:37;;;;;;;3.95;1.30;;;;;;;4.62;93.25;98232.83;1666616;86;21059;-78
2022/11/24 06:56:11;;;;;;;2.47;1.15;;;;;;;4.57;93.52;98236.29;1663604;86;20967;-78
2022/11/24 06:58:45;;;;;;;2.45;1.40;;;;;;;4.53;93.29;98244.93;1667198;85;21062;-78
2022/11/24 07:01:19;;;;;;;2.20;1.00;;;;;;;4.47;93.25;98251.91;1662225;86;21018;-78
2022/11/24 07:03:47;;;;;;;1.90;1.10;;;;;;;4.43;93.55;98244.66;1667414;86;20999;-78
2022/11/24 07:06:16;;;;;;;2.55;1.07;;;;;;;4.47;93.34;98248.04;1667345;85;21006;-78
2022/11/24 07:08:44;;;;;;;4.30;1.20;;;;;;;4.47;93.32;98251.91;1667484;85;21007;-78
2022/11/24 07:11:15;;;;;;;2.15;1.10;;;;;;;4.44;93.40;98258.40;1666223;84;21099;-78
2022/11/24 07:13:44;;;;;;;1.40;1.02;;;;;;;4.39;93.54;98262.30;1665206;85;21323;-78
2022/11/24 07:16:22;;;;;;;3.60;1.32;;;;;;;4.37;93.21;98254.59;1665210;85;21328;-78
2022/11/24 07:18:52;;;;;;;2.30;1.32;;;;;;;4.34;93.60;98262.38;1664576;85;21057;-78
2022/11/24 07:21:22;;;;;;;2.62;1.22;;;;;;;4.29;93.70;98263.30;1666761;85;21066;-78
2022/11/24 07:23:53;;;;;;;2.75;1.50;;;;;;;4.24;93.93;98263.37;1647831;85;20978;-77
2022/11/24 07:26:22;;;;;;;2.95;1.57;;;;;;;4.29;93.54;98262.85;1630847;86;21051;-77
2022/11/24 07:28:50;;;;;;;3.17;1.20;;;;;;;4.30;92.96;98268.43;1627517;86;21523;-78
2022/11/24 07:31:20;;;;;;;2.47;1.22;;;;;;;4.21;93.02;98268.98;1629450;86;21118;-79
2022/11/24 07:33:50;;;;;;;2.08;1.20;;;;;;;4.17;92.94;98269.00;1628276;86;21355;-79
2022/11/24 07:36:18;;;;;;;3.30;1.12;;;;;;;4.19;92.91;98275.42;1626681;86;21079;-78
2022/11/24 07:38:46;;;;;;;3.52;1.17;;;;;;;4.23;92.70;98269.37;1640450;86;20987;-78
2022/11/24 07:41:18;;;;;;;3.15;0.95;;;;;;;4.17;92.69;98278.45;1640547;86;21041;-79
2022/11/24 07:43:46;;;;;;;2.67;1.45;;;;;;;4.09;92.61;98283.69;1641857;86;21050;-78
2022/11/24 07:46:16;;;;;;;1.72;0.88;;;;;;;4.04;92.77;98276.89;1644205;86;21023;-79
2022/11/24 07:48:45;;;;;;;2.85;1.25;;;;;;;4.01;93.02;98283.38;1641268;86;21026;-79
2022/11/24 07:51:14;;;;;;;3.33;1.72;;;;;;;3.96;93.08;98292.44;1628895;87;21002;-78
2022/11/24 07:53:42;;;;;;;3.20;1.65;;;;;;;4.03;92.91;98290.64;1642512;86;21492;-79
2022/11/24 07:56:11;;;;;;;3.52;1.35;;;;;;;3.97;92.83;98288.53;1641193;86;21068;-78
2022/11/24 07:58:38;;;;;;;3.90;1.37;;;;;;;3.96;93.16;98293.73;1642920;86;21013;-77
2022/11/24 08:01:15;;;;;;;2.00;1.02;;;;;;;3.99;92.76;98299.66;1624067;87;21022;-78
2022/11/24 08:03:44;;;;;;;1.98;0.90;;;;;;;3.98;93.05;98298.41;1639345;86;21028;-77
2022/11/24 08:06:14;;;;;;;1.85;1.12;;;;;;;3.96;92.97;98298.42;1644694;86;21141;-79
2022/11/24 08:08:41;;;;;;;1.30;0.98;;;;;;;4.00;92.94;98304.39;1640214;85;21063;-78
2022/11/24 08:11:13;;;;;;;2.87;1.55;;;;;;;4.04;92.65;98304.77;1639652;86;21026;-78
2022/11/24 08:13:41;;;;;;;1.67;1.15;;;;;;;3.96;92.83;98302.28;1640209;86;21554;-76
2022/11/24 08:16:12;;;;;;;3.20;1.30;;;;;;;3.98;92.89;98307.42;1642070;86;21010;-77
2022/11/24 08:18:40;;;;;;;2.00;1.30;;;;;;;4.00;92.95;98314.69;1641445;86;21047;-77
2022/11/24 08:21:12;;;;;;;4.87;1.70;;;;;;;3.99;92.86;98312.52;1620579;87;21065;-78
2022/11/24 08:23:40;;;;;;;4.03;1.60;;;;;;;4.00;93.20;98313.39;1646010;84;21793;-78
2022/11/24 08:26:16;;;;;;;5.75;1.55;;;;;;;4.00;93.34;98319.83;1672487;84;21531;-78
2022/11/24 08:28:46;;;;;;;1.52;1.10;;;;;;;4.05;93.00;98324.46;1667621;85;20987;-77
2022/11/24 08:31:19;;;;;;;2.42;1.07;;;;;;;4.03;92.94;98332.63;1661445;85;21061;-77
2022/11/24 08:33:47;;;;;;;3.15;1.42;;;;;;;4.00;93.46;98318.54;1663460;85;21526;-78
2022/11/24 08:36:18;;;;;;;2.25;1.00;;;;;;;4.05;93.02;98325.75;1668146;85;21841;-77
2022/11/24 08:38:47;;;;;;;2.22;1.10;;;;;;;4.10;93.04;98332.12;1666695;85;21469;-78
2022/11/24 08:41:16;;;;;;;4.22;1.60;;;;;;;4.13;93.03;98331.66;1664522;85;21592;-78
2022/11/24 08:43:44;;;;;;;6.10;1.47;;;;;;;4.15;92.90;98327.34;1664895;85;20999;-78
2022/11/24 08:46:15;;;;;;;3.35;1.60;;;;;;;4.16;93.33;98332.08;1635256;86;21085;-77
2022/11/24 08:48:51;;;;;;;1.90;1.45;;;;;;;4.25;93.41;98333.68;1665232;85;20983;-78
2022/11/24 08:51:24;;;;;;;1.57;1.20;;;;;;;4.37;92.84;98328.38;1635669;86;21037;-77
2022/11/24 08:53:57;;;;;;;;;;;;;;;4.38;92.77;98333.95;1640958;86;21029;-77
2022/11/24 08:56:29;;;;;;;1.37;0.98;;;;;;;4.41;93.22;98327.91;1639140;86;20180;-78
2022/11/24 08:58:58;;;;;;;2.40;1.17;;;;;;;4.48;92.66;98332.97;1635304;86;21074;-77
2022/11/24 09:01:26;;;;;;;1.98;1.00;;;;;;;4.60;92.44;98329.38;1638161;86;21028;-77
2022/11/24 09:03:54;;;;;;;2.02;1.17;;;;;;;4.65;92.29;98333.17;1638247;86;21043;-78
2022/11/24 09:06:26;;;;;;;1.85;1.30;;;;;;;4.65;92.41;98340.89;1639245;86;21023;-77
2022/11/24 09:08:54;;;;;;;1.35;0.80;;;;;;;4.69;92.44;98334.39;1637488;86;21062;-78
2022/11/24 09:11:23;;;;;;;2.42;1.60;;;;;;;4.75;91.99;98339.89;1636385;86;21545;-80
2022/11/24 09:13:53;;;;;;;3.08;1.42;;;;;;;4.79;92.01;98333.83;1638970;86;20995;-78
2022/11/24 09:16:27;;;;;;;2.30;1.40;;;;;;;4.73;92.18;98338.63;1638815;86;21066;-79
2022/11/24 09:18:59;;;;;;;2.37;1.77;;;;;;;4.76;92.01;98338.59;1636109;86;21482;-78
2022/11/24 09:21:27;;;;;;;2.67;1.30;;;;;;;4.86;91.84;98334.17;1638921;86;21991;-78
2022/11/24 09:23:56;;;;;;;2.83;1.50;;;;;;;4.84;91.43;98342.36;1647289;83;21611;-79
2022/11/24 09:26:30;;;;;;;2.65;1.25;;;;;;;4.82;91.53;98342.81;1666505;85;22103;-79
2022/11/24 09:28:59;;;;;;;4.00;1.65;;;;;;;4.86;91.54;98341.05;1671769;84;21473;-78
2022/11/24 09:31:33;;;;;;;3.10;1.75;;;;;;;4.89;91.47;98343.12;1669852;85;21011;-78
2022/11/24 09:34:04;;;;;;;2.92;1.70;;;;;;;4.87;91.18;98337.14;1633165;86;20994;-78
2022/11/24 09:36:32;;;;;;;2.58;1.62;;;;;;;4.98;91.43;98333.98;1657673;85;21022;-78
2022/11/24 09:39:00;;;;;;;3.98;1.95;;;;;;;4.95;91.43;98345.64;1660670;85;21060;-77
2022/11/24 09:41:45;;;;;;;3.47;2.08;;;;;;;5.01;91.57;98340.80;1661379;85;21610;-78
2022/11/24 09:44:44;;;;;;;3.85;2.15;;;;;;;5.07;91.42;98333.43;1657980;85;20999;-78
2022/11/24 09:47:48;;;;;;;4.60;1.95;;;;;;;5.08;91.29;98340.30;1658601;85;21023;-78
2022/11/24 09:50:21;;;;;;;1.60;1.27;;;;;;;5.08;91.25;98345.01;1658229;85;21000;-78
2022/11/24 09:52:59;;;;;;;3.00;1.50;;;;;;;5.21;91.16;98340.50;1658467;85;21071;-78
2022/11/24 09:55:45;;;;;;;3.90;1.72;;;;;;;5.19;91.00;98340.97;1657547;85;21015;-78
2022/11/24 09:58:41;;;;;;;2.95;1.50;;;;;;;5.22;91.15;98334.94;1658492;85;21027;-77
2022/11/24 10:01:31;;;;;;;3.22;1.82;;;;;;;5.32;90.38;98332.63;1656113;85;21004;-78
2022/11/24 10:04:01;;;;;;;3.17;1.65;;;;;;;5.47;90.45;98334.95;1637115;85;20972;-78
2022/11/24 10:06:37;;;;;;;2.70;1.57;;;;;;;5.50;90.62;98331.02;1636554;85;20980;-78
2022/11/24 10:09:25;;;;;;;3.27;1.90;;;;;;;5.62;90.46;98335.56;1658099;85;21615;-78
2022/11/24 10:12:28;;;;;;;3.70;1.80;;;;;;;5.57;89.93;98335.62;1654535;85;21025;-78
2022/11/24 10:15:30;;;;;;;5.15;2.33;;;;;;;5.69;90.01;98335.44;1654822;85;21007;-78
2022/11/24 10:18:12;;;;;;;3.65;2.00;;;;;;;5.74;89.79;98332.77;1658390;85;21011;-78
2022/11/24 10:21:08;;;;;;;3.80;2.02;;;;;;;5.85;89.83;98335.14;1656586;85;21102;-78
2022/11/24 10:24:10;;;;;;;5.12;1.90;;;;;;;5.86;89.16;98335.56;1651666;85;21344;-78
2022/11/24 10:26:42;;;;;;;5.35;2.10;;;;;;;5.92;89.49;98335.45;1660294;85;21070;-78
2022/11/24 10:29:27;;;;;;;4.20;2.10;;;;;;;5.91;89.11;98333.77;1654057;85;21098;-78
2022/11/24 10:31:56;;;;;;;4.22;2.30;;;;;;;5.90;88.31;98337.21;1666673;84;21069;-78
2022/11/24 10:34:32;;;;;;;3.67;2.00;;;;;;;5.96;88.65;98330.67;1633482;86;21034;-78
2022/11/24 10:37:49;;;;;;;4.47;1.82;;;;;;;5.98;88.63;98336.66;1633570;86;22450;-78
2022/11/24 10:40:34;;;;;;;2.87;1.60;;;;;;;6.02;88.11;98338.30;1659437;85;21102;-79
2022/11/24 10:43:04;;;;;;;3.25;1.50;;;;;;;6.11;87.33;98336.84;1615139;86;21118;-77
2022/11/24 10:45:31;;;;;;;3.08;1.50;;;;;;;6.10;87.05;98341.58;1657989;85;21022;-78
2022/11/24 10:47:59;;;;;;;4.00;1.77;;;;;;;6.11;86.51;98340.72;1658008;85;20999;-78
2022/11/24 10:50:34;;;;;;;2.90;1.65;;;;;;;6.10;86.76;98333.84;1638081;86;21029;-78
2022/11/24 10:53:10;;;;;;;4.00;1.72;;;;;;;6.20;87.11;98339.67;1657916;85;21019;-79
2022/11/24 10:55:57;;;;;;;2.90;1.55;;;;;;;6.22;87.13;98335.78;1659966;85;21038;-78
2022/11/24 10:58:37;;;;;;;2.25;1.42;;;;;;;6.23;87.44;98340.05;1655324;85;20991;-78
2022/11/24 11:01:21;;;;;;;3.12;1.82;;;;;;;6.33;87.26;98335.14;1659931;85;21035;-78
2022/11/24 11:03:56;;;;;;;3.95;2.20;;;;;;;6.34;86.72;98336.82;1657072;85;21946;-78
2022/11/24 11:06:31;;;;;;;4.40;2.10;;;;;;;6.36;86.63;98327.31;1659949;85;21026;-78
2022/11/24 11:09:16;;;;;;;4.45;2.45;;;;;;;6.41;86.31;98331.95;1660103;85;20991;-79
2022/11/24 11:11:50;;;;;;;10.53;2.15;;;;;;;6.47;86.72;98325.82;1659959;85;21075;-79
2022/11/24 11:14:34;;;;;;;4.55;1.75;;;;;;;6.52;86.24;98330.43;1658910;85;21002;-78
2022/11/24 11:17:23;;;;;;;3.10;1.87;;;;;;;6.53;86.32;98328.27;1667342;85;21011;-78
2022/11/24 11:19:53;;;;;;;3.75;1.80;;;;;;;6.57;85.99;98325.58;1659876;85;21015;-78
2022/11/24 11:22:30;;;;;;;3.83;1.80;;;;;;;6.61;86.16;98331.54;1659400;85;21050;-78
2022/11/24 11:25:15;;;;;;;3.08;1.72;;;;;;;6.63;85.94;98330.22;1660925;85;21062;-79
2022/11/24 11:27:43;;;;;;;3.83;1.50;;;;;;;6.56;85.25;98334.64;1658867;85;21059;-77
2022/11/24 11:30:26;;;;;;;2.67;1.25;;;;;;;6.56;85.33;98329.06;1658874;85;21086;-77
2022/11/24 11:32:56;;;;;;;;;;;;;;;6.58;84.36;98338.05;1663954;85;21621;-78
2022/11/24 11:35:26;;;;;;;3.08;1.77;;;;;;;6.55;85.16;98335.09;1663213;84;20161;-78
2022/11/24 11:38:05;;;;;;;2.95;1.75;;;;;;;6.52;84.59;98342.05;1659223;85;21011;-79
2022/11/24 11:40:34;;;;;;;3.55;2.02;;;;;;;6.51;85.23;98337.34;1659112;85;21102;-78
2022/11/24 11:43:30;;;;;;;3.98;1.87;;;;;;;6.43;84.19;98343.10;1658943;85;21581;-78
2022/11/24 11:46:10;;;;;;;3.00;1.82;;;;;;;6.45;84.73;98345.21;1641453;85;21162;-79
2022/11/24 11:48:43;;;;;;;6.58;1.98;;;;;;;6.40;85.13;98339.27;1648682;85;21061;-78
2022/11/24 11:51:49;;;;;;;5.65;2.20;;;;;;;6.35;84.96;98338.09;1659659;85;21385;-78
2022/11/24 11:54:43;;;;;;;5.30;1.82;;;;;;;6.35;85.25;98334.66;1649669;85;21082;-78
2022/11/24 11:57:17;;;;;;;;;;;;;;;6.23;84.51;98343.50;1635567;86;21075;-79
2022/11/24 11:59:57;;;;;;;4.55;1.92;;;;;;;6.24;85.09;98347.77;1638602;86;20238;-78
2022/11/24 12:02:54;;;;;;;9.10;1.80;;;;;;;6.23;85.16;98349.95;1640843;86;21008;-77
2022/11/24 12:06:03;;;;;;;6.67;1.90;;;;;;;6.22;84.98;98349.53;1640731;86;21000;-77
2022/11/24 12:08:48;;;;;;;3.50;1.90;;;;;;;6.20;84.93;98353.87;1633458;86;20972;-78